Data for 06/04/2008

Time Sea-Level Adjusted Pressure Absolute Pressure Temperature Relative Humidity Dew Point   
(mb) (inHg) (mb) (inHg) (C) (F) (%) (C) (F)
00:05 1007 29.74 836 24.69 9.6 49.3 86 7.4 45.3
00:10 1006 29.71 836 24.69 9.6 49.2 86 7.4 45.2
00:15 1006 29.71 836 24.69 9.7 49.5 85 7.4 45.3
00:20 1006 29.71 836 24.69 10 50 85 7.6 45.6
00:25 1007 29.74 836 24.69 10.1 50.3 85 7.7 45.8
00:30 1007 29.74 836 24.69 10.2 50.4 85 7.9 46.2
00:35 1007 29.74 836 24.69 10.2 50.4 86 8 46.3
00:40 1007 29.74 836 24.69 10 50 88 8.1 46.6
00:45 1006 29.71 836 24.69 9.6 49.3 90 8 46.4
00:50 1006 29.71 836 24.69 9.5 49 91 8.1 46.5
00:55 1006 29.71 836 24.69 9.6 49.2 91 8.2 46.8
01:00 1006 29.71 836 24.69 9.5 49 91 8.1 46.5
01:05 1006 29.71 836 24.69 9.3 48.7 92 8 46.3
01:10 1006 29.71 836 24.69 9.2 48.6 92 8 46.4
01:15 1006 29.71 835 24.66 9 48.2 93 7.9 46.2
01:20 1006 29.71 835 24.66 9.1 48.3 93 8 46.3
01:25 1006 29.71 835 24.66 9 48.2 93 8 46.4
01:30 1006 29.71 835 24.66 8.9 48 94 8 46.4
01:35 1006 29.71 835 24.66 8.8 47.8 95 8 46.4
01:40 1006 29.71 835 24.66 8.7 47.6 95 8 46.3
01:45 1006 29.71 835 24.66 8.6 47.5 96 8 46.4
01:50 1006 29.71 835 24.66 8.5 47.2 96 7.9 46.3
01:55 1006 29.71 835 24.66 8.5 47.2 97 8 46.4
02:00 1006 29.71 835 24.66 8.4 47.2 97 8 46.4
02:05 1006 29.71 835 24.66 8.4 47 98 8 46.4
02:10 1006 29.71 835 24.66 8.3 46.9 98 8 46.3
02:15 1006 29.71 835 24.66 8.2 46.7 99 8 46.4
02:20 1006 29.71 835 24.66 8.1 46.6 99 8 46.3
02:25 1006 29.71 835 24.66 8.1 46.6 100 8 46.5
02:30 1006 29.71 835 24.66 8 46.5 100 8 46.5
02:35 1006 29.71 835 24.66 8 46.3 163 15.3 59.5
02:40 1006 29.71 835 24.66 7.9 46.2 163 15.3 59.5
02:45 1006 29.71 835 24.66 7.8 46 164 15.1 59.2
02:50 1006 29.71 835 24.66 7.6 45.7 164 15 58.9
02:55 1006 29.71 835 24.66 7.6 45.6 164 14.9 58.9
03:00 1006 29.71 835 24.66 7.5 45.5 164 14.8 58.7
03:05 1006 29.71 835 24.66 7.5 45.4 164 14.8 58.6
03:10 1006 29.71 835 24.66 7.5 45.5 164 14.9 58.8
03:15 1006 29.71 835 24.66 7.7 45.8 164 15 59
03:20 1006 29.71 835 24.66 7.6 45.7 164 14.9 58.9
03:25 1006 29.71 835 24.66 7.5 45.6 164 14.9 58.8
03:30 1006 29.71 835 24.66 7.5 45.4 164 14.8 58.7
03:35 1006 29.71 835 24.66 7.3 45.2 164 14.7 58.4
03:40 1006 29.71 835 24.66 7.3 45.1 164 14.6 58.3
03:45 1005 29.68 835 24.66 7.3 45.1 164 14.6 58.4
03:50 1006 29.71 835 24.66 7.3 45.1 164 14.6 58.3
03:55 1006 29.71 835 24.66 7.3 45.1 164 14.6 58.3
04:00 1005 29.68 835 24.66 7.4 45.2 164 14.7 58.5
04:05 1005 29.68 835 24.66 7.3 45.1 164 14.6 58.3
04:10 1005 29.68 835 24.66 7.3 45.1 164 14.6 58.3
04:15 1005 29.68 834 24.63 7.2 45 164 14.6 58.2
04:20 1005 29.68 835 24.66 7.3 45.1 164 14.6 58.2
04:25 1005 29.68 835 24.66 7.3 45.1 164 14.6 58.3
04:30 1005 29.68 835 24.66 7.3 45.1 164 14.6 58.3
04:35 1005 29.68 835 24.66 7.2 45 164 14.5 58.2
04:40 1005 29.68 835 24.66 7.1 44.9 164 14.5 58.1
04:45 1005 29.68 835 24.66 7.1 44.8 164 14.5 58
04:50 1005 29.68 835 24.66 7.2 45 164 14.6 58.2
04:55 1005 29.68 835 24.66 7.2 44.9 164 14.5 58.1
05:00 1005 29.68 835 24.66 7.3 45.1 164 14.6 58.3
05:05 1005 29.68 835 24.66 7.2 45 164 14.6 58.2
05:10 1005 29.68 835 24.66 7.2 44.9 164 14.5 58.1
05:15 1005 29.68 835 24.66 7.1 44.9 164 14.5 58.1
05:20 1005 29.68 835 24.66 7.2 44.9 164 14.5 58.1
05:25 1005 29.68 835 24.66 7.2 45 164 14.5 58.2
05:30 1005 29.68 835 24.66 7.2 44.9 164 14.5 58.1
05:35 1005 29.68 835 24.66 7 44.6 164 14.3 57.8
05:40 1005 29.68 835 24.66 6.9 44.4 164 14.2 57.6
05:45 1005 29.68 835 24.66 6.8 44.3 164 14.2 57.5
05:50 1005 29.68 835 24.66 6.8 44.3 164 14.2 57.5
05:55 1005 29.68 835 24.66 6.8 44.2 164 14.1 57.4
06:00 1005 29.68 835 24.66 6.7 44.1 164 14.1 57.3
06:05 1005 29.68 835 24.66 6.7 44.1 164 14 57.3
06:10 1005 29.68 835 24.66 6.7 44 164 14 57.2
06:15 1006 29.71 835 24.66 6.8 44.2 164 14.1 57.4
06:20 1006 29.71 835 24.66 6.8 44.2 164 14.1 57.4
06:25 1006 29.71 835 24.66 6.7 44.1 164 14.1 57.3
06:30 1006 29.71 835 24.66 6.8 44.2 164 14.1 57.4
06:35 1006 29.71 835 24.66 6.8 44.2 164 14.1 57.3
06:40 1006 29.71 835 24.66 6.7 44.1 164 14.1 57.3
06:45 1006 29.71 835 24.66 6.8 44.2 164 14.1 57.4
06:50 1006 29.71 835 24.66 6.6 43.9 164 13.9 57.1
06:55 1006 29.71 835 24.66 6.6 43.9 164 13.9 57
07:00 1006 29.71 835 24.66 6.6 43.9 164 13.9 57.1
07:05 1006 29.71 835 24.66 6.6 43.9 164 13.9 57.1
07:10 1006 29.71 835 24.66 6.6 43.9 164 13.9 57.1
07:15 1006 29.71 835 24.66 6.7 44.1 164 14 57.3
07:20 1006 29.71 835 24.66 6.7 44.1 164 14 57.3
07:25 1006 29.71 835 24.66 6.7 44 164 14 57.2
07:30 1006 29.71 835 24.66 6.8 44.2 164 14.1 57.4
07:35 1006 29.71 835 24.66 6.8 44.3 164 14.2 57.5
07:40 1006 29.71 835 24.66 6.9 44.4 164 14.2 57.6
07:45 1006 29.71 835 24.66 7 44.5 164 14.3 57.7
07:50 1006 29.71 835 24.66 7 44.5 164 14.3 57.7
07:55 1006 29.71 835 24.66 7 44.5 164 14.3 57.7
08:00 1006 29.71 835 24.66 7 44.6 164 14.3 57.8
08:05 1006 29.71 835 24.66 7 44.7 164 14.4 57.8
08:10 1006 29.71 835 24.66 6.9 44.5 164 14.2 57.6
08:15 1006 29.71 835 24.66 6.9 44.4 164 14.2 57.6
08:20 1006 29.71 835 24.66 6.9 44.4 164 14.2 57.6
08:25 1006 29.71 835 24.66 6.7 44.1 164 14.1 57.3
08:30 1006 29.71 835 24.66 6.8 44.2 164 14.1 57.4
08:35 1006 29.71 835 24.66 6.8 44.2 164 14.1 57.4
08:40 1006 29.71 835 24.66 6.8 44.2 164 14.1 57.4
08:45 1006 29.71 835 24.66 6.9 44.3 164 14.2 57.5
08:50 1006 29.71 835 24.66 6.9 44.5 164 14.3 57.7
08:55 1006 29.71 835 24.66 7.1 44.7 164 14.4 57.9
09:00 1006 29.71 835 24.66 7 44.6 164 14.4 57.9
09:05 1006 29.71 835 24.66 7.1 44.8 164 14.4 58
09:10 1006 29.71 835 24.66 7.1 44.7 164 14.4 57.9
09:15 1006 29.71 835 24.66 6.9 44.4 164 14.2 57.6
09:20 1006 29.71 836 24.69 6.6 43.8 164 13.9 57
09:25 1006 29.71 836 24.69 6.3 43.4 164 13.6 56.5
09:30 1006 29.71 836 24.69 6.4 43.5 164 13.7 56.7
09:35 1006 29.71 836 24.69 6.7 44 164 14 57.2
09:40 1006 29.71 836 24.69 6.8 44.2 164 14.1 57.4
09:45 1006 29.71 836 24.69 6.7 44 164 14 57.2
09:50 1006 29.71 836 24.69 6.7 44.1 164 14.1 57.3
09:55 1007 29.74 836 24.69 7 44.7 164 14.4 57.8
10:00 1007 29.74 836 24.69 7.1 44.8 164 14.4 58
10:05 1007 29.74 836 24.69 7.2 45 164 14.6 58.3
10:10 1007 29.74 836 24.69 7.3 45.2 164 14.7 58.5
10:15 1007 29.74 836 24.69 7.3 45.2 164 14.7 58.4
10:20 1007 29.74 836 24.69 7.4 45.3 164 14.8 58.6
10:25 1007 29.74 836 24.69 7.4 45.4 164 14.8 58.6
10:30 1007 29.74 836 24.69 7.1 44.8 164 14.4 58
10:35 1007 29.74 836 24.69 7.5 45.5 164 14.9 58.8
10:40 1007 29.74 836 24.69 7.6 45.6 164 14.9 58.9
10:45 1007 29.74 836 24.69 7.5 45.5 164 14.9 58.8
10:50 1007 29.74 836 24.69 7.6 45.8 164 15 59
10:55 1007 29.74 836 24.69 7.7 45.9 164 15.1 59.1
11:00 1007 29.74 836 24.69 7.6 45.7 164 15 58.9
11:05 1007 29.74 836 24.69 7.6 45.6 164 14.9 58.9
11:10 1007 29.74 836 24.69 7.9 46.1 164 15.2 59.4
11:15 1007 29.74 836 24.69 7.9 46.2 164 15.3 59.5
11:20 1007 29.74 836 24.69 8.3 46.9 164 15.6 60.2
11:25 1007 29.74 836 24.69 8.5 47.3 164 15.9 60.6
11:30 1007 29.74 836 24.69 8.4 47 164 15.7 60.3
11:35 1007 29.74 836 24.69 8.7 47.6 164 16.1 60.9
11:40 1007 29.74 836 24.69 9 48.1 95 8.2 46.8
11:45 1007 29.74 836 24.69 8.9 47.9 96 8.2 46.8
11:50 1007 29.74 836 24.69 8.8 47.8 96 8.1 46.6
11:55 1007 29.74 836 24.69 8.6 47.4 96 8 46.4
12:00 1007 29.74 837 24.72 8.5 47.4 96 8 46.4
12:05 1007 29.74 837 24.72 8.2 46.8 96 7.7 45.8
12:10 1007 29.74 837 24.72 8.2 46.7 96 7.6 45.7
12:15 1007 29.74 837 24.72 8 46.4 96 7.4 45.4
12:20 1007 29.74 837 24.72 8.2 46.7 96 7.6 45.6
12:25 1007 29.74 837 24.72 8.1 46.6 95 7.4 45.4
12:30 1008 29.77 837 24.72 8.1 46.5 96 7.4 45.3
12:35 1008 29.77 837 24.72 8 46.4 96 7.4 45.3
12:40 1008 29.77 837 24.72 8.1 46.6 95 7.3 45.2
12:45 1008 29.77 837 24.72 8.2 46.8 95 7.4 45.4
12:50 1008 29.77 837 24.72 8.6 47.5 94 7.7 45.8
12:55 1008 29.77 837 24.72 8.8 47.9 93 7.8 46
13:00 1008 29.77 837 24.72 8.9 48.1 92 7.7 45.8
13:05 1008 29.77 837 24.72 9 48.1 91 7.5 45.5
13:10 1008 29.77 837 24.72 9 48.2 90 7.4 45.3
13:15 1008 29.77 837 24.72 9.3 48.7 87 7.3 45.1
13:20 1008 29.77 837 24.72 9.3 48.7 86 7 44.7
13:25 1008 29.77 837 24.72 9.2 48.6 88 7.4 45.2
13:30 1008 29.77 837 24.72 9.2 48.5 88 7.3 45.1
13:35 1008 29.77 837 24.72 9.1 48.4 88 7.2 44.9
13:40 1008 29.77 837 24.72 9 48.3 87 7 44.7
13:45 1008 29.77 837 24.72 9.1 48.4 88 7.3 45.1
13:50 1008 29.77 837 24.72 9.4 48.8 88 7.4 45.3
13:55 1008 29.77 837 24.72 9.4 48.9 88 7.6 45.6
14:00 1008 29.77 837 24.72 9.5 49 87 7.5 45.4
14:05 1008 29.77 837 24.72 9.6 49.2 89 7.9 46.3
14:10 1008 29.77 837 24.72 9.8 49.7 89 8.1 46.6
14:15 1008 29.77 837 24.72 9.7 49.5 89 8 46.4
14:20 1008 29.77 837 24.72 9.5 49.1 89 7.8 46.1
14:25 1008 29.77 837 24.72 9.5 49 90 7.9 46.2
14:30 1008 29.77 837 24.72 9.5 49.2 90 8 46.5
14:35 1008 29.77 838 24.75 9.5 49.1 91 8.1 46.5
14:40 1008 29.77 838 24.75 9.5 49 91 8.1 46.6
14:45 1008 29.77 838 24.75 9.4 49 91 8.1 46.5
14:50 1008 29.77 838 24.75 9.5 49 91 8.1 46.6
14:55 1008 29.77 838 24.75 9.5 49.1 91 8.1 46.6
15:00 1008 29.77 838 24.75 9.4 48.8 91 8 46.4
15:05 1008 29.77 838 24.75 9.3 48.7 92 8 46.5
15:10 1009 29.8 838 24.75 9.2 48.6 93 8.1 46.5
15:15 1009 29.8 838 24.75 9 48.1 94 8 46.4
15:20 1009 29.8 838 24.75 8.4 47 96 7.7 45.9
15:25 1009 29.8 838 24.75 8.2 46.8 97 7.8 46
15:30 1009 29.8 838 24.75 8.3 46.9 97 7.9 46.2
15:35 1009 29.8 838 24.75 8.3 46.9 97 7.8 46.1
15:40 1009 29.8 838 24.75 8.2 46.8 97 7.8 46
15:45 1009 29.8 838 24.75 8.2 46.7 97 7.8 46
15:50 1009 29.8 838 24.75 8.6 47.4 97 8.1 46.6
15:55 1009 29.8 838 24.75 8.5 47.4 96 7.9 46.3
16:00 1009 29.8 838 24.75 8.5 47.2 95 7.8 46
16:05 1009 29.8 838 24.75 8.3 47 96 7.7 45.9
16:10 1009 29.8 838 24.75 8.2 46.7 96 7.5 45.6
16:15 1009 29.8 838 24.75 8.2 46.7 96 7.6 45.7
16:20 1009 29.8 838 24.75 8.3 47 95 7.7 45.8
16:25 1009 29.8 838 24.75 8.4 47.2 95 7.7 45.8
16:30 1009 29.8 838 24.75 8.3 47 95 7.5 45.5
16:35 1009 29.8 838 24.75 8.3 46.9 95 7.5 45.5
16:40 1009 29.8 838 24.75 8.3 46.9 95 7.5 45.5
16:45 1009 29.8 838 24.75 8.3 47 95 7.5 45.5
16:50 1009 29.8 838 24.75 8.2 46.8 94 7.4 45.3
16:55 1009 29.8 839 24.78 8.2 46.7 95 7.4 45.2
17:00 1009 29.8 839 24.78 8 46.4 95 7.2 45
17:05 1009 29.8 839 24.78 8 46.4 95 7.3 45.1
17:10 1010 29.83 839 24.78 8 46.3 96 7.3 45.1
17:15 1010 29.83 839 24.78 8 46.4 96 7.4 45.2
17:20 1010 29.83 839 24.78 8 46.4 96 7.4 45.3
17:25 1010 29.83 839 24.78 7.9 46.2 96 7.3 45.1
17:30 1010 29.83 839 24.78 7.7 45.9 97 7.3 45.1
17:35 1010 29.83 839 24.78 7.8 46 98 7.4 45.4
17:40 1010 29.83 839 24.78 7.8 46 98 7.5 45.5
17:45 1010 29.83 839 24.78 7.8 46 98 7.6 45.6
17:50 1010 29.83 839 24.78 7.9 46.2 99 7.7 45.8
17:55 1010 29.83 839 24.78 7.9 46.2 99 7.7 45.9
18:00 1010 29.83 839 24.78 7.9 46.2 99 7.7 45.9
18:05 1010 29.83 839 24.78 7.8 46.1 99 7.7 45.8
18:10 1010 29.83 839 24.78 7.9 46.2 99 7.7 45.9
18:15 1010 29.83 839 24.78 7.9 46.1 99 7.7 45.8
18:20 1010 29.83 839 24.78 7.9 46.2 99 7.7 45.9
18:25 1010 29.83 839 24.78 8 46.4 99 7.8 46
18:30 1010 29.83 839 24.78 8.1 46.6 99 7.9 46.2
18:35 1010 29.83 839 24.78 8.3 46.9 98 8 46.4
18:40 1010 29.83 839 24.78 8.2 46.8 97 7.8 46.1
18:45 1010 29.83 839 24.78 8.2 46.7 98 7.8 46.1
18:50 1010 29.83 839 24.78 8.2 46.7 97 7.8 46
18:55 1010 29.83 839 24.78 8.2 46.8 97 7.7 45.9
19:00 1010 29.83 839 24.78 8.2 46.7 97 7.7 45.8
19:05 1010 29.83 839 24.78 8.2 46.7 97 7.7 45.9
19:10 1010 29.83 839 24.78 8.2 46.8 97 7.8 46.1
19:15 1010 29.83 839 24.78 8.2 46.7 98 7.8 46.1
19:20 1010 29.83 839 24.78 8.1 46.5 98 7.7 45.9
19:25 1010 29.83 840 24.81 8 46.4 98 7.7 45.8
19:30 1010 29.83 840 24.81 7.9 46.1 98 7.6 45.7
19:35 1010 29.83 840 24.81 7.8 46.1 99 7.6 45.7
19:40 1010 29.83 840 24.81 7.8 46.1 99 7.7 45.8
19:45 1011 29.85 840 24.81 7.9 46.1 99 7.7 45.8
19:50 1011 29.85 840 24.81 7.9 46.1 99 7.7 45.9
19:55 1011 29.85 840 24.81 7.9 46.3 99 7.8 46
20:00 1011 29.85 840 24.81 7.9 46.1 99 7.7 45.9
20:05 1011 29.85 840 24.81 7.9 46.2 99 7.7 45.9
20:10 1011 29.85 840 24.81 7.9 46.2 99 7.7 45.8
20:15 1011 29.85 840 24.81 8.1 46.5 98 7.7 45.9
20:20 1011 29.85 840 24.81 8.1 46.5 97 7.5 45.6
20:25 1011 29.85 840 24.81 8.1 46.5 96 7.5 45.4
20:30 1011 29.85 840 24.81 8 46.5 96 7.5 45.4
20:35 1011 29.85 840 24.81 8.1 46.6 96 7.5 45.5
20:40 1011 29.85 840 24.81 8.1 46.7 96 7.6 45.6
20:45 1011 29.85 840 24.81 8.1 46.6 96 7.5 45.5
20:50 1011 29.85 840 24.81 8.1 46.5 96 7.4 45.4
20:55 1011 29.85 840 24.81 8 46.4 96 7.4 45.3
21:00 1011 29.85 840 24.81 8 46.4 96 7.4 45.4
21:05 1011 29.85 840 24.81 7.9 46.3 97 7.5 45.5
21:10 1011 29.85 841 24.83 7.7 45.9 98 7.4 45.3
21:15 1011 29.85 841 24.83 7.7 45.9 98 7.4 45.4
21:20 1011 29.85 841 24.83 7.8 46 98 7.5 45.4
21:25 1012 29.88 841 24.83 7.7 45.9 98 7.4 45.4
21:30 1012 29.88 841 24.83 7.6 45.7 99 7.4 45.4
21:35 1012 29.88 841 24.83 7.5 45.5 99 7.4 45.2
21:40 1012 29.88 841 24.83 7.4 45.3 99 7.3 45.1
21:45 1012 29.88 841 24.83 7.3 45.1 100 7.2 45
21:50 1012 29.88 841 24.83 7.2 45 100 7.2 45
21:55 1012 29.88 841 24.83 7.1 44.9 100 7.1 44.9
22:00 1012 29.88 841 24.83 7.1 44.7 100 7.1 44.7
22:05 1012 29.88 841 24.83 7 44.6 100 7 44.6
22:10 1012 29.88 841 24.83 7 44.6 100 7 44.6
22:15 1012 29.88 841 24.83 7 44.6 100 7 44.6
22:20 1012 29.88 841 24.83 7.1 44.7 100 7.1 44.7
22:25 1012 29.88 841 24.83 7.2 44.9 100 7.2 44.9
22:30 1012 29.88 841 24.83 7.4 45.2 163 14.7 58.4
22:35 1012 29.88 841 24.83 7.5 45.4 164 14.8 58.6
22:40 1012 29.88 841 24.83 7.5 45.6 163 14.9 58.7
22:45 1012 29.88 841 24.83 7.5 45.6 164 14.9 58.8
22:50 1012 29.88 841 24.83 7.5 45.5 164 14.8 58.7
22:55 1012 29.88 841 24.83 7.4 45.4 164 14.8 58.6
23:00 1012 29.88 841 24.83 7.5 45.5 164 14.9 58.8
23:05 1012 29.88 841 24.83 7.4 45.4 164 14.8 58.6
23:10 1012 29.88 841 24.83 7.4 45.3 164 14.7 58.5
23:15 1012 29.88 841 24.83 7.4 45.2 164 14.7 58.5
23:20 1012 29.88 841 24.83 7.3 45.2 164 14.7 58.4
23:25 1012 29.88 841 24.83 7.3 45.2 164 14.7 58.4
23:30 1012 29.88 841 24.83 7.4 45.2 164 14.7 58.5
23:35 1012 29.88 841 24.83 7.4 45.3 164 14.7 58.5
23:40 1012 29.88 841 24.83 7.3 45.2 164 14.7 58.4
23:45 1012 29.88 841 24.83 7.4 45.2 164 14.7 58.5
23:50 1012 29.88 841 24.83 7.4 45.3 164 14.7 58.5
23:55 1012 29.88 841 24.83 7.4 45.3 164 14.7 58.5
24:00 1012 29.88 841 24.83 7.5 45.4 164 14.8 58.6